Time;durP1;ratioP1;P1;durP2;ratioP2;P2;SDS_P1;SDS_P2;PMS_P1;PMS_P2;Temp;Humidity;BMP_temperature;BMP_pressure;BME280_temperature;BME280_humidity;BME280_pressure;Samples;Min_cycle;Max_cycle;Signal;HPM_P1;HPM_P2
2023/05/26 00:00:19;;;;;;;5.20;3.15;;;;;;;;;;5054402;28;20048;-56
2023/05/26 00:02:46;;;;;;;6.47;3.25;;;;;;;;;;5054350;28;20392;-56
2023/05/26 00:05:13;;;;;;;4.45;2.85;;;;;;;;;;5054588;28;20025;-56
2023/05/26 00:07:40;;;;;;;9.40;3.45;;;;;;;;;;5053748;28;20104;-56
2023/05/26 00:10:07;;;;;;;4.80;2.60;;;;;;;;;;5054215;28;20366;-56
2023/05/26 00:12:33;;;;;;;6.13;3.50;;;;;;;;;;5054009;28;20054;-56
2023/05/26 00:14:59;;;;;;;4.57;3.33;;;;;;;;;;5053406;28;20056;-56
2023/05/26 00:17:25;;;;;;;4.18;2.80;;;;;;;;;;5053778;28;20028;-58
2023/05/26 00:19:52;;;;;;;3.90;2.75;;;;;;;;;;5053634;28;20037;-59
2023/05/26 00:22:18;;;;;;;4.80;2.88;;;;;;;;;;5054081;28;20017;-58
2023/05/26 00:24:44;;;;;;;4.03;3.13;;;;;;;;;;5053526;28;20029;-58
2023/05/26 00:27:10;;;;;;;4.47;3.20;;;;;;;;;;5054134;28;20036;-59
2023/05/26 00:29:37;;;;;;;6.05;3.30;;;;;;;;;;5057762;28;20025;-58
2023/05/26 00:32:03;;;;;;;5.63;3.20;;;;;;;;;;5060491;28;20025;-59
2023/05/26 00:34:29;;;;;;;4.63;2.47;;;;;;;;;;5060217;28;20431;-59
2023/05/26 00:36:55;;;;;;;4.80;3.20;;;;;;;;;;5060495;28;20108;-59
2023/05/26 00:39:21;;;;;;;5.30;3.55;;;;;;;;;;5060738;28;20048;-58
2023/05/26 00:41:47;;;;;;;4.75;2.97;;;;;;;;;;5060094;28;20074;-58
2023/05/26 00:44:13;;;;;;;4.65;2.92;;;;;;;;;;5060026;28;20371;-59
2023/05/26 00:46:40;;;;;;;5.97;2.88;;;;;;;;;;5060924;28;20021;-59
2023/05/26 00:49:05;;;;;;;5.18;3.30;;;;;;;;;;5059736;28;20527;-59
2023/05/26 00:51:32;;;;;;;6.93;3.72;;;;;;;;;;5060045;28;20104;-59
2023/05/26 00:53:59;;;;;;;7.97;3.35;;;;;;;;;;5060542;28;20127;-58
2023/05/26 00:56:27;;;;;;;4.05;3.15;;;;;;;;;;5060358;28;20040;-59
2023/05/26 00:58:53;;;;;;;5.85;3.13;;;;;;;;;;5060429;28;20374;-58
2023/05/26 01:01:19;;;;;;;4.53;3.38;;;;;;;;;;5059950;28;20021;-58
2023/05/26 01:03:45;;;;;;;5.93;2.97;;;;;;;;;;5059947;28;20090;-56
2023/05/26 01:06:11;;;;;;;4.72;3.08;;;;;;;;;;5060169;28;20061;-56
2023/05/26 01:08:37;;;;;;;5.50;3.95;;;;;;;;;;5059946;28;20458;-55
2023/05/26 01:11:14;;;;;;;5.10;3.22;;;;;;;;;;5060222;28;20037;-56
2023/05/26 01:13:48;;;;;;;5.05;3.63;;;;;;;;;;5059779;28;20060;-56
2023/05/26 01:16:17;;;;;;;5.25;3.33;;;;;;;;;;5059893;28;20036;-56
2023/05/26 01:18:48;;;;;;;7.45;3.60;;;;;;;;;;5060316;28;20079;-58
2023/05/26 01:21:15;;;;;;;3.28;2.58;;;;;;;;;;5059473;28;20021;-57
2023/05/26 01:23:58;;;;;;;4.35;2.70;;;;;;;;;;5059997;28;20029;-56
2023/05/26 01:26:38;;;;;;;6.43;3.78;;;;;;;;;;5060232;28;20041;-56
2023/05/26 01:29:14;;;;;;;3.40;2.63;;;;;;;;;;5059867;28;20375;-56
2023/05/26 01:31:41;;;;;;;4.25;3.40;;;;;;;;;;5060411;28;20036;-57
2023/05/26 01:34:07;;;;;;;4.30;3.22;;;;;;;;;;5059664;28;20035;-56
2023/05/26 01:36:33;;;;;;;3.95;3.30;;;;;;;;;;5059788;28;20415;-57
2023/05/26 01:39:00;;;;;;;3.88;3.00;;;;;;;;;;5060149;28;20029;-56
2023/05/26 01:41:28;;;;;;;6.53;3.60;;;;;;;;;;5056450;28;20486;-56
2023/05/26 01:44:00;;;;;;;5.00;3.65;;;;;;;;;;5056747;28;20033;-56
2023/05/26 01:46:41;;;;;;;5.68;3.42;;;;;;;;;;5057154;28;20119;-56
2023/05/26 01:49:08;;;;;;;4.28;3.33;;;;;;;;;;5056616;28;20410;-56
2023/05/26 01:51:35;;;;;;;4.95;3.20;;;;;;;;;;5056285;28;20025;-56
2023/05/26 01:54:02;;;;;;;5.85;4.07;;;;;;;;;;5056266;28;20029;-56
2023/05/26 01:56:30;;;;;;;3.90;3.28;;;;;;;;;;5056800;28;20029;-56
2023/05/26 01:58:57;;;;;;;6.20;3.63;;;;;;;;;;5056058;28;20459;-56
2023/05/26 02:01:25;;;;;;;4.95;3.90;;;;;;;;;;5056968;28;20028;-56
2023/05/26 02:03:51;;;;;;;4.35;2.92;;;;;;;;;;5056082;28;20033;-57
2023/05/26 02:06:17;;;;;;;4.28;3.22;;;;;;;;;;5056351;28;20087;-56
2023/05/26 02:08:43;;;;;;;4.18;2.67;;;;;;;;;;5056557;28;20029;-56
2023/05/26 02:11:09;;;;;;;4.72;3.70;;;;;;;;;;5055949;28;20025;-56
2023/05/26 02:13:35;;;;;;;4.90;3.53;;;;;;;;;;5056105;28;20036;-57
2023/05/26 02:16:01;;;;;;;5.50;3.20;;;;;;;;;;5056218;28;20367;-56
2023/05/26 02:18:28;;;;;;;5.47;3.70;;;;;;;;;;5055783;28;20132;-56
2023/05/26 02:20:54;;;;;;;4.13;3.13;;;;;;;;;;5056285;28;20025;-57
2023/05/26 02:23:20;;;;;;;5.32;3.20;;;;;;;;;;5055781;28;20029;-56
2023/05/26 02:25:46;;;;;;;5.45;4.10;;;;;;;;;;5056424;28;20036;-56
2023/05/26 02:28:12;;;;;;;7.60;4.20;;;;;;;;;;5055917;28;20029;-56
2023/05/26 02:30:38;;;;;;;3.83;2.90;;;;;;;;;;5056329;28;20052;-57
2023/05/26 02:33:05;;;;;;;5.72;4.10;;;;;;;;;;5055527;28;20066;-56
2023/05/26 02:35:32;;;;;;;6.63;3.75;;;;;;;;;;5056281;28;20029;-57
2023/05/26 02:37:58;;;;;;;8.70;3.40;;;;;;;;;;5055477;28;20033;-56
2023/05/26 02:40:23;;;;;;;6.18;3.85;;;;;;;;;;5055391;28;20017;-56
2023/05/26 02:42:49;;;;;;;5.15;3.40;;;;;;;;;;5055393;28;20037;-56
2023/05/26 02:45:15;;;;;;;6.32;3.90;;;;;;;;;;5055845;28;20142;-57
2023/05/26 02:47:41;;;;;;;5.38;3.45;;;;;;;;;;5055565;28;20040;-56
2023/05/26 02:50:07;;;;;;;5.88;3.88;;;;;;;;;;5055031;28;20017;-55
2023/05/26 02:52:33;;;;;;;4.53;3.72;;;;;;;;;;5055271;28;20115;-57
2023/05/26 02:54:59;;;;;;;4.88;3.58;;;;;;;;;;5055498;28;20533;-56
2023/05/26 02:57:25;;;;;;;6.15;3.90;;;;;;;;;;5055341;28;20025;-56
2023/05/26 02:59:51;;;;;;;9.00;4.47;;;;;;;;;;5054996;28;20064;-56
2023/05/26 03:02:17;;;;;;;10.85;3.83;;;;;;;;;;5055076;28;20047;-55
2023/05/26 03:04:43;;;;;;;4.95;3.70;;;;;;;;;;5055186;28;20037;-56
2023/05/26 03:07:09;;;;;;;5.53;3.70;;;;;;;;;;5055318;28;20067;-56
2023/05/26 03:09:35;;;;;;;5.68;3.22;;;;;;;;;;5054828;28;20045;-56
2023/05/26 03:12:01;;;;;;;5.90;3.78;;;;;;;;;;5054867;28;20043;-56
2023/05/26 03:14:27;;;;;;;6.07;3.67;;;;;;;;;;5055519;28;20487;-56
2023/05/26 03:16:53;;;;;;;5.28;4.32;;;;;;;;;;5055078;28;20033;-56
2023/05/26 03:19:19;;;;;;;4.45;4.03;;;;;;;;;;5055214;28;20455;-56
2023/05/26 03:21:46;;;;;;;5.63;3.70;;;;;;;;;;5054702;28;20029;-56
2023/05/26 03:24:12;;;;;;;7.15;4.53;;;;;;;;;;5054536;28;20025;-56
2023/05/26 03:26:38;;;;;;;6.55;4.80;;;;;;;;;;5054915;28;20040;-57
2023/05/26 03:29:04;;;;;;;7.82;4.30;;;;;;;;;;5055057;28;20028;-56
2023/05/26 03:31:31;;;;;;;5.13;3.65;;;;;;;;;;5054475;28;20025;-56
2023/05/26 03:33:57;;;;;;;5.82;3.42;;;;;;;;;;5055054;28;20036;-56
2023/05/26 03:36:23;;;;;;;4.95;4.13;;;;;;;;;;5054497;28;20438;-56
2023/05/26 03:38:49;;;;;;;6.32;3.90;;;;;;;;;;5054623;28;20422;-56
2023/05/26 03:41:15;;;;;;;5.13;4.10;;;;;;;;;;5054276;28;20025;-55
2023/05/26 03:43:41;;;;;;;5.38;4.22;;;;;;;;;;5054242;28;20071;-56
2023/05/26 03:46:07;;;;;;;7.57;4.18;;;;;;;;;;5054511;28;20029;-56
2023/05/26 03:48:33;;;;;;;4.85;3.80;;;;;;;;;;5053888;28;20116;-55
2023/05/26 03:50:58;;;;;;;6.22;4.30;;;;;;;;;;5054191;28;20020;-56
2023/05/26 03:53:24;;;;;;;5.55;4.32;;;;;;;;;;5054141;28;20025;-56
2023/05/26 03:55:50;;;;;;;5.93;4.13;;;;;;;;;;5054641;28;20037;-57
2023/05/26 03:58:16;;;;;;;5.68;3.90;;;;;;;;;;5054028;28;20171;-56
2023/05/26 04:00:42;;;;;;;7.15;3.63;;;;;;;;;;5054491;28;20095;-56
2023/05/26 04:03:08;;;;;;;9.35;4.57;;;;;;;;;;5053824;28;20025;-56
2023/05/26 04:05:34;;;;;;;5.18;4.63;;;;;;;;;;5053721;28;20463;-56
2023/05/26 04:08:00;;;;;;;6.60;4.57;;;;;;;;;;5054468;28;20036;-56
2023/05/26 04:10:26;;;;;;;7.40;4.53;;;;;;;;;;5053860;28;20443;-56
2023/05/26 04:12:52;;;;;;;6.18;4.07;;;;;;;;;;5053925;28;20024;-57
2023/05/26 04:15:18;;;;;;;4.57;3.47;;;;;;;;;;5054924;28;20056;-57
2023/05/26 04:17:44;;;;;;;6.10;4.47;;;;;;;;;;5054024;28;20113;-56
2023/05/26 04:20:10;;;;;;;5.53;4.22;;;;;;;;;;5054537;28;20035;-56
2023/05/26 04:22:37;;;;;;;5.47;4.00;;;;;;;;;;5053711;28;20383;-56
2023/05/26 04:25:03;;;;;;;5.60;4.05;;;;;;;;;;5053285;28;20124;-56
2023/05/26 04:27:29;;;;;;;6.28;4.60;;;;;;;;;;5053957;28;20029;-56
2023/05/26 04:29:58;;;;;;;5.40;4.30;;;;;;;;;;5053647;28;20391;-56
2023/05/26 04:32:24;;;;;;;9.27;4.47;;;;;;;;;;5053619;28;20032;-56
2023/05/26 04:34:51;;;;;;;8.07;4.45;;;;;;;;;;5053742;28;20069;-56
2023/05/26 04:37:17;;;;;;;7.30;4.07;;;;;;;;;;5053838;28;20074;-57
2023/05/26 04:39:43;;;;;;;5.95;4.57;;;;;;;;;;5053497;28;20078;-56
2023/05/26 04:42:09;;;;;;;6.97;4.28;;;;;;;;;;5054026;28;20468;-56
2023/05/26 04:44:37;;;;;;;5.15;4.28;;;;;;;;;;5053435;28;20041;-55
2023/05/26 04:47:03;;;;;;;7.32;4.72;;;;;;;;;;5053553;28;20039;-57
2023/05/26 04:49:30;;;;;;;6.18;4.35;;;;;;;;;;5053424;28;20383;-56
2023/05/26 04:51:57;;;;;;;8.90;4.93;;;;;;;;;;5054172;28;20025;-56
2023/05/26 04:54:23;;;;;;;8.10;4.97;;;;;;;;;;5053413;28;20033;-56
2023/05/26 04:56:49;;;;;;;6.00;4.43;;;;;;;;;;5053790;28;20096;-59
2023/05/26 04:59:17;;;;;;;5.05;4.45;;;;;;;;;;5053201;28;20119;-57
2023/05/26 05:01:44;;;;;;;8.00;4.57;;;;;;;;;;5053875;28;20362;-58
2023/05/26 05:04:10;;;;;;;7.18;5.18;;;;;;;;;;5053238;28;20060;-58
2023/05/26 05:06:36;;;;;;;4.43;4.03;;;;;;;;;;5053561;28;20058;-58
2023/05/26 05:09:02;;;;;;;7.00;5.28;;;;;;;;;;5053172;28;20421;-57
2023/05/26 05:11:28;;;;;;;5.85;4.00;;;;;;;;;;5053295;28;20025;-58
2023/05/26 05:13:55;;;;;;;6.80;4.35;;;;;;;;;;5052372;28;20048;-58
2023/05/26 05:16:21;;;;;;;7.95;4.47;;;;;;;;;;5054462;28;20025;-58
2023/05/26 05:18:47;;;;;;;9.63;5.00;;;;;;;;;;5057647;28;20112;-57
2023/05/26 05:21:13;;;;;;;5.13;4.22;;;;;;;;;;5056861;28;20483;-57
2023/05/26 05:23:39;;;;;;;6.35;4.55;;;;;;;;;;5057107;28;20348;-58
2023/05/26 05:26:05;;;;;;;7.45;4.25;;;;;;;;;;5057271;28;20473;-60
2023/05/26 05:28:31;;;;;;;6.03;4.53;;;;;;;;;;5056823;28;20025;-58
2023/05/26 05:30:57;;;;;;;7.03;4.90;;;;;;;;;;5056616;28;20025;-58
2023/05/26 05:33:23;;;;;;;6.18;4.72;;;;;;;;;;5057012;28;20025;-58
2023/05/26 05:35:49;;;;;;;7.07;4.65;;;;;;;;;;5056718;28;20090;-58
2023/05/26 05:38:15;;;;;;;6.85;5.38;;;;;;;;;;5056459;28;20025;-58
2023/05/26 05:40:41;;;;;;;7.07;5.60;;;;;;;;;;5056495;28;20021;-58
2023/05/26 05:43:07;;;;;;;6.78;4.88;;;;;;;;;;5056608;28;20099;-58
2023/05/26 05:45:33;;;;;;;7.30;4.55;;;;;;;;;;5056289;28;20033;-58
2023/05/26 05:47:59;;;;;;;6.22;4.55;;;;;;;;;;5056156;28;20112;-57
2023/05/26 05:50:25;;;;;;;5.88;4.50;;;;;;;;;;5056262;28;20029;-58
2023/05/26 05:52:52;;;;;;;6.20;5.10;;;;;;;;;;5056325;28;20071;-58
2023/05/26 05:55:18;;;;;;;9.23;5.00;;;;;;;;;;5056231;28;20036;-58
2023/05/26 05:57:44;;;;;;;7.32;4.50;;;;;;;;;;5056442;28;20106;-57
2023/05/26 06:00:11;;;;;;;7.60;5.97;;;;;;;;;;5056251;28;20075;-58
2023/05/26 06:02:37;;;;;;;5.72;4.97;;;;;;;;;;5056164;28;20029;-58
2023/05/26 06:05:03;;;;;;;6.70;5.13;;;;;;;;;;5055811;28;20032;-58
2023/05/26 06:07:30;;;;;;;5.63;4.85;;;;;;;;;;5056448;28;20021;-58
2023/05/26 06:09:57;;;;;;;7.60;5.35;;;;;;;;;;5055928;28;20086;-58
2023/05/26 06:12:23;;;;;;;7.32;5.32;;;;;;;;;;5056468;28;20028;-58
2023/05/26 06:14:49;;;;;;;8.52;4.82;;;;;;;;;;5056061;28;20060;-58
2023/05/26 06:17:15;;;;;;;6.65;5.28;;;;;;;;;;5055760;28;20463;-58
2023/05/26 06:19:41;;;;;;;7.28;5.18;;;;;;;;;;5055869;28;20025;-58
2023/05/26 06:22:06;;;;;;;8.52;5.20;;;;;;;;;;5055825;28;20032;-58
2023/05/26 06:24:32;;;;;;;7.57;5.50;;;;;;;;;;5055927;28;20036;-58
2023/05/26 06:26:58;;;;;;;5.35;4.85;;;;;;;;;;5055452;28;20029;-58
2023/05/26 06:29:24;;;;;;;6.50;5.53;;;;;;;;;;5056273;28;20028;-58
2023/05/26 06:31:50;;;;;;;8.52;5.43;;;;;;;;;;5055628;28;20032;-58
2023/05/26 06:34:16;;;;;;;11.82;5.13;;;;;;;;;;5055602;28;20025;-58
2023/05/26 06:36:42;;;;;;;11.38;5.97;;;;;;;;;;5055592;28;20029;-58
2023/05/26 06:39:08;;;;;;;11.93;6.00;;;;;;;;;;5055207;28;20078;-58
2023/05/26 06:41:34;;;;;;;8.38;5.35;;;;;;;;;;5055286;28;20050;-57
2023/05/26 06:44:00;;;;;;;6.40;5.07;;;;;;;;;;5055978;28;20391;-58
2023/05/26 06:46:26;;;;;;;6.80;5.10;;;;;;;;;;5055046;28;20029;-58
2023/05/26 06:48:52;;;;;;;7.75;5.53;;;;;;;;;;5055851;28;20029;-58
2023/05/26 06:51:18;;;;;;;6.55;4.65;;;;;;;;;;5055567;28;20029;-58
2023/05/26 06:53:44;;;;;;;8.85;5.75;;;;;;;;;;5055238;28;20367;-58
2023/05/26 06:56:10;;;;;;;7.80;5.82;;;;;;;;;;5055706;28;20493;-58
2023/05/26 06:58:36;;;;;;;8.60;5.65;;;;;;;;;;5055138;28;20029;-58
2023/05/26 07:01:02;;;;;;;9.13;5.00;;;;;;;;;;5055687;28;20021;-58
2023/05/26 07:03:29;;;;;;;9.82;5.25;;;;;;;;;;5055253;28;20371;-58
2023/05/26 07:05:55;;;;;;;10.52;6.35;;;;;;;;;;5055524;28;20040;-58
2023/05/26 07:08:21;;;;;;;10.43;6.47;;;;;;;;;;5054911;28;20017;-58
2023/05/26 07:10:47;;;;;;;9.85;6.13;;;;;;;;;;5054975;28;20020;-58
2023/05/26 07:13:13;;;;;;;6.05;5.45;;;;;;;;;;5054904;28;20474;-58
2023/05/26 07:15:39;;;;;;;7.10;5.65;;;;;;;;;;5055968;28;20067;-58
2023/05/26 07:18:05;;;;;;;10.05;6.55;;;;;;;;;;5055395;28;20440;-58
2023/05/26 07:20:31;;;;;;;9.75;6.20;;;;;;;;;;5055277;28;20473;-58
2023/05/26 07:22:57;;;;;;;7.53;6.78;;;;;;;;;;5054901;28;20031;-58
2023/05/26 07:25:23;;;;;;;10.07;6.38;;;;;;;;;;5054723;28;20071;-58
2023/05/26 07:27:49;;;;;;;6.95;5.47;;;;;;;;;;5054646;28;20378;-58
2023/05/26 07:30:15;;;;;;;5.97;4.78;;;;;;;;;;5054984;28;20033;-58
2023/05/26 07:32:41;;;;;;;10.43;5.50;;;;;;;;;;5054459;28;20025;-58
2023/05/26 07:35:07;;;;;;;7.53;5.82;;;;;;;;;;5054776;28;20036;-58
2023/05/26 07:37:33;;;;;;;7.18;4.82;;;;;;;;;;5055046;28;20048;-58
2023/05/26 07:39:59;;;;;;;6.93;5.85;;;;;;;;;;5053571;28;20451;-58
2023/05/26 07:42:25;;;;;;;6.65;5.15;;;;;;;;;;5054532;28;20025;-58
2023/05/26 07:44:51;;;;;;;11.45;5.97;;;;;;;;;;5054540;28;20025;-58
2023/05/26 07:47:17;;;;;;;7.57;5.15;;;;;;;;;;5054849;28;20033;-58
2023/05/26 07:49:43;;;;;;;8.15;5.75;;;;;;;;;;5054449;28;20019;-58
2023/05/26 07:52:09;;;;;;;7.90;5.22;;;;;;;;;;5054212;28;20021;-58
2023/05/26 07:54:35;;;;;;;7.18;5.75;;;;;;;;;;5054145;28;20401;-58
2023/05/26 07:57:01;;;;;;;8.82;5.25;;;;;;;;;;5054080;28;20025;-59
2023/05/26 07:59:27;;;;;;;7.85;5.57;;;;;;;;;;5054500;28;20025;-58
2023/05/26 08:01:53;;;;;;;9.63;6.22;;;;;;;;;;5054045;28;20025;-59
2023/05/26 08:04:19;;;;;;;8.68;6.10;;;;;;;;;;5053956;28;20024;-59
2023/05/26 08:06:45;;;;;;;8.27;5.07;;;;;;;;;;5053883;28;20032;-58
2023/05/26 08:09:11;;;;;;;7.60;5.60;;;;;;;;;;5053913;28;20033;-58
2023/05/26 08:11:37;;;;;;;10.90;6.22;;;;;;;;;;5053858;28;20475;-58
2023/05/26 08:14:03;;;;;;;5.72;5.13;;;;;;;;;;5054245;28;20079;-59
2023/05/26 08:16:29;;;;;;;6.93;5.30;;;;;;;;;;5053776;28;20109;-58
2023/05/26 08:18:55;;;;;;;7.88;5.43;;;;;;;;;;5054084;28;20021;-58
2023/05/26 08:21:21;;;;;;;8.45;6.75;;;;;;;;;;5053697;28;20021;-58
2023/05/26 08:23:47;;;;;;;7.90;6.43;;;;;;;;;;5054116;28;20032;-58
2023/05/26 08:26:13;;;;;;;7.60;5.55;;;;;;;;;;5054227;28;20025;-58
2023/05/26 08:28:39;;;;;;;7.80;5.38;;;;;;;;;;5053740;28;20039;-58
2023/05/26 08:31:05;;;;;;;9.23;6.30;;;;;;;;;;5053654;28;20055;-58
2023/05/26 08:33:31;;;;;;;8.93;4.85;;;;;;;;;;5054235;28;20017;-58
2023/05/26 08:35:57;;;;;;;8.85;5.97;;;;;;;;;;5053888;28;20454;-58
2023/05/26 08:38:23;;;;;;;8.82;6.25;;;;;;;;;;5053588;28;20056;-59
2023/05/26 08:40:51;;;;;;;6.07;5.47;;;;;;;;;;5054224;28;20044;-58
2023/05/26 08:43:19;;;;;;;8.00;5.45;;;;;;;;;;5053844;28;20025;-58
2023/05/26 08:45:46;;;;;;;7.68;5.10;;;;;;;;;;5054054;28;20099;-58
2023/05/26 08:48:12;;;;;;;7.90;4.45;;;;;;;;;;5054394;28;20048;-58
2023/05/26 08:50:38;;;;;;;7.45;6.25;;;;;;;;;;5055738;28;20025;-59
2023/05/26 08:53:04;;;;;;;6.65;4.97;;;;;;;;;;5057840;28;20033;-59
2023/05/26 08:55:32;;;;;;;5.85;4.72;;;;;;;;;;5057757;28;20483;-59
2023/05/26 08:57:59;;;;;;;8.75;5.50;;;;;;;;;;5057646;28;20463;-58
2023/05/26 09:00:29;;;;;;;7.40;5.13;;;;;;;;;;5058309;28;20025;-59
2023/05/26 09:02:55;;;;;;;7.57;6.70;;;;;;;;;;5057428;28;20037;-58
2023/05/26 09:05:21;;;;;;;7.28;4.88;;;;;;;;;;5057292;28;20032;-58
2023/05/26 09:07:47;;;;;;;8.20;5.32;;;;;;;;;;5057389;28;20051;-58
2023/05/26 09:10:22;;;;;;;6.68;5.82;;;;;;;;;;5057236;28;20124;-61
2023/05/26 09:12:48;;;;;;;8.38;5.53;;;;;;;;;;5056995;28;20048;-59
2023/05/26 09:15:21;;;;;;;6.85;5.28;;;;;;;;;;5057632;28;20140;-59
2023/05/26 09:17:48;;;;;;;6.18;5.28;;;;;;;;;;5057985;28;20071;-58
2023/05/26 09:20:15;;;;;;;7.07;6.15;;;;;;;;;;5056954;28;20382;-59
2023/05/26 09:22:41;;;;;;;9.25;5.40;;;;;;;;;;5057030;28;20092;-59
2023/05/26 09:25:07;;;;;;;8.38;5.57;;;;;;;;;;5056865;28;20158;-59
2023/05/26 09:27:33;;;;;;;7.93;5.47;;;;;;;;;;5057057;28;20077;-58
2023/05/26 09:30:00;;;;;;;6.50;5.35;;;;;;;;;;5056464;28;20056;-59
2023/05/26 09:32:27;;;;;;;6.78;5.05;;;;;;;;;;5056809;28;20025;-58
2023/05/26 09:34:53;;;;;;;7.82;5.53;;;;;;;;;;5057074;28;20040;-58
2023/05/26 09:37:27;;;;;;;11.60;5.32;;;;;;;;;;5057336;28;20112;-58
2023/05/26 09:39:53;;;;;;;6.88;4.90;;;;;;;;;;5056637;28;20017;-59
2023/05/26 09:42:19;;;;;;;8.00;4.85;;;;;;;;;;5056617;28;20486;-58
2023/05/26 09:44:48;;;;;;;9.65;5.85;;;;;;;;;;5056236;28;20025;-59
2023/05/26 09:47:19;;;;;;;7.70;5.57;;;;;;;;;;5056889;28;20433;-58
2023/05/26 09:49:45;;;;;;;5.53;4.95;;;;;;;;;;5056547;28;20021;-59
2023/05/26 09:52:11;;;;;;;7.18;5.40;;;;;;;;;;5056687;28;20028;-59
2023/05/26 09:54:37;;;;;;;6.15;5.05;;;;;;;;;;5056168;28;20021;-59
2023/05/26 09:57:05;;;;;;;7.28;5.20;;;;;;;;;;5056878;28;20094;-58
2023/05/26 09:59:32;;;;;;;8.95;5.72;;;;;;;;;;5056240;28;20104;-60
2023/05/26 10:01:59;;;;;;;5.07;3.85;;;;;;;;;;5055581;28;20447;-60
2023/05/26 10:04:25;;;;;;;6.95;6.25;;;;;;;;;;5056221;28;20025;-60
2023/05/26 10:06:52;;;;;;;7.07;6.10;;;;;;;;;;5055911;28;20032;-59
2023/05/26 10:09:22;;;;;;;8.88;5.43;;;;;;;;;;5056208;28;20033;-60
2023/05/26 10:11:50;;;;;;;6.93;6.17;;;;;;;;;;5056179;28;20037;-60
2023/05/26 10:14:16;;;;;;;9.07;5.30;;;;;;;;;;5055864;28;20051;-60
2023/05/26 10:16:42;;;;;;;6.10;5.05;;;;;;;;;;5056093;28;20032;-60
2023/05/26 10:19:08;;;;;;;7.70;5.13;;;;;;;;;;5055926;28;20090;-60
2023/05/26 10:21:37;;;;;;;6.18;4.70;;;;;;;;;;5055947;28;20117;-60
2023/05/26 10:24:24;;;;;;;6.03;4.65;;;;;;;;;;5055444;28;20386;-60
2023/05/26 10:27:01;;;;;;;5.32;4.50;;;;;;;;;;5055787;28;20029;-60
2023/05/26 10:29:30;;;;;;;5.65;4.72;;;;;;;;;;5056057;28;20455;-60
2023/05/26 10:31:56;;;;;;;6.07;4.88;;;;;;;;;;5056506;28;20114;-60
2023/05/26 10:34:42;;;;;;;7.80;5.53;;;;;;;;;;5055658;28;20059;-60
2023/05/26 10:37:14;;;;;;;8.68;5.38;;;;;;;;;;5055860;28;20103;-60
2023/05/26 10:39:40;;;;;;;9.50;5.25;;;;;;;;;;5056020;28;20355;-60
2023/05/26 10:42:19;;;;;;;7.50;4.93;;;;;;;;;;5055138;28;20037;-59
2023/05/26 10:44:46;;;;;;;9.70;5.30;;;;;;;;;;5055428;28;20518;-60
2023/05/26 10:47:14;;;;;;;6.13;4.97;;;;;;;;;;5056076;28;20037;-60
2023/05/26 10:49:40;;;;;;;7.05;4.78;;;;;;;;;;5054993;28;20025;-60
2023/05/26 10:52:13;;;;;;;6.85;4.72;;;;;;;;;;5055819;28;20439;-60
2023/05/26 10:54:40;;;;;;;8.77;4.57;;;;;;;;;;5055084;28;20167;-60
2023/05/26 10:57:06;;;;;;;9.18;5.55;;;;;;;;;;5055571;28;20537;-60
2023/05/26 10:59:33;;;;;;;5.75;4.63;;;;;;;;;;5055038;28;20031;-60
2023/05/26 11:02:07;;;;;;;6.00;4.95;;;;;;;;;;5055065;28;20374;-60
2023/05/26 11:04:43;;;;;;;5.68;5.00;;;;;;;;;;5055283;28;20044;-60
2023/05/26 11:07:26;;;;;;;6.55;5.25;;;;;;;;;;5055344;28;20025;-60
2023/05/26 11:10:08;;;;;;;11.55;4.65;;;;;;;;;;5055109;28;20021;-60
2023/05/26 11:12:34;;;;;;;6.13;4.97;;;;;;;;;;5055641;28;20029;-60
2023/05/26 11:15:20;;;;;;;7.80;5.35;;;;;;;;;;5054891;28;20049;-60
2023/05/26 11:17:53;;;;;;;9.35;5.30;;;;;;;;;;5054874;28;20025;-60
2023/05/26 11:20:21;;;;;;;7.78;4.72;;;;;;;;;;5055073;28;20029;-60
2023/05/26 11:22:47;;;;;;;7.80;5.57;;;;;;;;;;5054349;28;20519;-60
2023/05/26 11:25:13;;;;;;;7.47;4.97;;;;;;;;;;5054676;28;20107;-60
2023/05/26 11:27:45;;;;;;;6.03;5.07;;;;;;;;;;5055185;28;20021;-60
2023/05/26 11:30:11;;;;;;;5.85;4.60;;;;;;;;;;5054613;28;20452;-60
2023/05/26 11:32:43;;;;;;;9.40;4.53;;;;;;;;;;5054792;28;20107;-60
2023/05/26 11:35:25;;;;;;;8.20;5.55;;;;;;;;;;5055265;28;20020;-60
2023/05/26 11:37:52;;;;;;;6.10;5.18;;;;;;;;;;5054500;28;20036;-60
2023/05/26 11:40:18;;;;;;;7.03;4.93;;;;;;;;;;5054829;28;20022;-60
2023/05/26 11:42:44;;;;;;;5.70;4.50;;;;;;;;;;5054707;28;20025;-60
2023/05/26 11:45:11;;;;;;;9.23;4.97;;;;;;;;;;5054162;28;20475;-60
2023/05/26 11:47:37;;;;;;;8.07;5.13;;;;;;;;;;5054721;28;20025;-60
2023/05/26 11:50:09;;;;;;;5.88;3.95;;;;;;;;;;5054189;28;20451;-60
2023/05/26 11:52:35;;;;;;;6.72;5.35;;;;;;;;;;5054150;28;20068;-60
2023/05/26 11:55:02;;;;;;;5.03;4.53;;;;;;;;;;5053960;28;20056;-60
2023/05/26 11:57:31;;;;;;;7.65;4.82;;;;;;;;;;5055137;28;20032;-60
2023/05/26 11:59:58;;;;;;;6.25;4.60;;;;;;;;;;5054825;28;20028;-60
2023/05/26 12:02:24;;;;;;;7.35;4.90;;;;;;;;;;5054072;28;20391;-60
2023/05/26 12:04:50;;;;;;;4.35;3.88;;;;;;;;;;5053882;28;20517;-60
2023/05/26 12:07:30;;;;;;;6.55;4.50;;;;;;;;;;5054637;28;20068;-60
2023/05/26 12:10:03;;;;;;;6.30;4.85;;;;;;;;;;5053805;28;20025;-60
2023/05/26 12:12:32;;;;;;;9.07;5.22;;;;;;;;;;5053970;28;20088;-60
2023/05/26 12:15:05;;;;;;;7.03;4.90;;;;;;;;;;5054162;28;20049;-60
2023/05/26 12:17:31;;;;;;;6.60;5.18;;;;;;;;;;5054142;28;20021;-60
2023/05/26 12:19:58;;;;;;;7.35;5.38;;;;;;;;;;5054390;28;20029;-60
2023/05/26 12:22:28;;;;;;;6.43;3.75;;;;;;;;;;5053439;28;20479;-60
2023/05/26 12:24:59;;;;;;;6.35;4.97;;;;;;;;;;5053208;28;20032;-60
2023/05/26 12:27:35;;;;;;;5.47;4.15;;;;;;;;;;5054121;28;20112;-60
2023/05/26 12:30:15;;;;;;;7.78;4.40;;;;;;;;;;5054603;28;20025;-60
2023/05/26 12:32:41;;;;;;;4.35;3.95;;;;;;;;;;5054119;28;20105;-60
2023/05/26 12:35:07;;;;;;;10.10;4.63;;;;;;;;;;5054258;28;20493;-60
2023/05/26 12:37:33;;;;;;;5.18;3.78;;;;;;;;;;5054026;28;20035;-60
2023/05/26 12:40:00;;;;;;;5.03;4.38;;;;;;;;;;5053696;28;20447;-60
2023/05/26 12:42:26;;;;;;;7.78;5.18;;;;;;;;;;5054128;28;20025;-60
2023/05/26 12:44:52;;;;;;;5.22;4.28;;;;;;;;;;5053503;28;20028;-60
2023/05/26 12:47:17;;;;;;;6.57;4.60;;;;;;;;;;5054171;28;20029;-60
2023/05/26 12:49:44;;;;;;;5.88;4.15;;;;;;;;;;5053750;28;20052;-60
2023/05/26 12:52:10;;;;;;;6.53;5.07;;;;;;;;;;5053443;28;20100;-60
2023/05/26 12:54:36;;;;;;;7.85;4.95;;;;;;;;;;5053064;28;20475;-60
2023/05/26 12:57:04;;;;;;;5.45;4.18;;;;;;;;;;5053954;28;20132;-60
2023/05/26 12:59:30;;;;;;;8.68;4.80;;;;;;;;;;5053813;28;20029;-60
2023/05/26 13:01:56;;;;;;;6.07;3.67;;;;;;;;;;5053424;28;20017;-60
2023/05/26 13:04:23;;;;;;;6.20;4.75;;;;;;;;;;5053452;28;20467;-60
2023/05/26 13:06:52;;;;;;;4.93;4.13;;;;;;;;;;5053314;28;20107;-60
2023/05/26 13:09:19;;;;;;;5.47;3.70;;;;;;;;;;5053407;28;20033;-60
2023/05/26 13:11:45;;;;;;;7.57;4.03;;;;;;;;;;5053542;28;20091;-60
2023/05/26 13:14:11;;;;;;;6.68;3.95;;;;;;;;;;5053075;28;20041;-60
2023/05/26 13:16:38;;;;;;;9.52;5.20;;;;;;;;;;5053252;28;20032;-60
2023/05/26 13:19:04;;;;;;;4.45;3.83;;;;;;;;;;5053515;28;20033;-60
2023/05/26 13:21:30;;;;;;;9.82;4.93;;;;;;;;;;5053359;28;20032;-60
2023/05/26 13:23:56;;;;;;;5.00;3.80;;;;;;;;;;5053094;28;20448;-60
2023/05/26 13:26:23;;;;;;;10.23;4.30;;;;;;;;;;5053078;28;20082;-60
2023/05/26 13:28:50;;;;;;;7.10;3.78;;;;;;;;;;5052883;28;20120;-60
2023/05/26 13:31:17;;;;;;;5.18;4.25;;;;;;;;;;5053006;28;20025;-60
2023/05/26 13:33:42;;;;;;;4.82;4.32;;;;;;;;;;5053104;28;20033;-60
2023/05/26 13:36:09;;;;;;;6.05;4.68;;;;;;;;;;5053357;28;20032;-60
2023/05/26 13:38:35;;;;;;;5.78;4.45;;;;;;;;;;5056784;28;20031;-60
2023/05/26 13:41:01;;;;;;;5.57;4.00;;;;;;;;;;5056716;28;20071;-60
2023/05/26 13:43:27;;;;;;;6.47;4.75;;;;;;;;;;5056889;28;20095;-60
2023/05/26 13:45:53;;;;;;;5.10;3.42;;;;;;;;;;5057017;28;20060;-60
2023/05/26 13:48:19;;;;;;;6.55;4.50;;;;;;;;;;5056538;28;20051;-60
2023/05/26 13:50:45;;;;;;;5.90;4.40;;;;;;;;;;5056543;28;20025;-60
2023/05/26 13:53:11;;;;;;;4.95;3.80;;;;;;;;;;5056416;28;20023;-60
2023/05/26 13:55:37;;;;;;;5.60;3.85;;;;;;;;;;5056357;28;20021;-60
2023/05/26 13:58:03;;;;;;;5.82;4.47;;;;;;;;;;5056300;28;20022;-60
2023/05/26 14:00:30;;;;;;;6.00;3.92;;;;;;;;;;5057066;28;20336;-60
2023/05/26 14:02:56;;;;;;;5.95;4.63;;;;;;;;;;5056292;28;20127;-60
2023/05/26 14:05:22;;;;;;;6.18;4.15;;;;;;;;;;5056621;28;20486;-60
2023/05/26 14:07:48;;;;;;;6.03;3.47;;;;;;;;;;5056981;28;20037;-60
2023/05/26 14:10:15;;;;;;;5.43;3.97;;;;;;;;;;5056123;28;20520;-60
2023/05/26 14:12:41;;;;;;;4.72;3.67;;;;;;;;;;5056006;28;20036;-60
2023/05/26 14:15:07;;;;;;;7.60;3.42;;;;;;;;;;5056246;28;20057;-60
2023/05/26 14:17:34;;;;;;;4.40;3.47;;;;;;;;;;5056755;28;20035;-60
2023/05/26 14:20:00;;;;;;;4.78;3.88;;;;;;;;;;5055841;28;20024;-61
2023/05/26 14:22:26;;;;;;;5.47;3.72;;;;;;;;;;5055909;28;20021;-61
2023/05/26 14:24:52;;;;;;;5.63;3.72;;;;;;;;;;5055716;28;20028;-61
2023/05/26 14:27:18;;;;;;;5.25;3.97;;;;;;;;;;5056283;28;20025;-61
2023/05/26 14:29:44;;;;;;;6.72;3.70;;;;;;;;;;5055759;28;20028;-61
2023/05/26 14:32:10;;;;;;;5.28;4.20;;;;;;;;;;5055969;28;20032;-61
2023/05/26 14:34:36;;;;;;;7.15;4.22;;;;;;;;;;5055544;28;20108;-61
2023/05/26 14:37:02;;;;;;;5.53;3.83;;;;;;;;;;5055860;28;20020;-61
2023/05/26 14:39:28;;;;;;;6.78;4.22;;;;;;;;;;5055721;28;20021;-60
2023/05/26 14:41:54;;;;;;;5.80;4.32;;;;;;;;;;5056071;28;20037;-60